Time;durP1;ratioP1;P1;durP2;ratioP2;P2;SDS_P1;SDS_P2;PMS_P1;PMS_P2;Temp;Humidity;BMP_temperature;BMP_pressure;BME280_temperature;BME280_humidity;BME280_pressure;Samples;Min_cycle;Max_cycle;Signal;HPM_P1;HPM_P2
2022/06/18 00:01:59;;;;;;;9.73;7.30;;;;;;;13.65;81.26;99508.66;2236461;79;20923;-78
2022/06/18 00:05:00;;;;;;;7.35;6.40;;;;;;;13.58;81.25;99500.27;2235864;79;20920;-78
2022/06/18 00:08:00;;;;;;;7.80;6.53;;;;;;;13.53;81.39;99497.61;2236354;79;20956;-78
2022/06/18 00:13:39;;;;;;;14.07;7.28;;;;;;;13.46;81.38;99502.77;2236157;79;20920;-79
2022/06/18 00:14:01;;;;;;;11.05;6.87;;;;;;;13.43;81.43;99506.67;2236095;79;20975;-78
2022/06/18 00:17:02;;;;;;;7.35;6.47;;;;;;;13.38;81.41;99506.19;2236431;79;20907;-78
2022/06/18 00:20:02;;;;;;;12.58;7.03;;;;;;;13.34;81.40;99500.47;2236135;79;20888;-78
2022/06/18 00:23:02;;;;;;;17.70;7.50;;;;;;;13.27;81.40;99495.14;2223239;79;20960;-79
2022/06/18 00:26:02;;;;;;;18.15;7.62;;;;;;;13.18;81.62;99498.53;2209035;79;20957;-78
2022/06/18 00:29:03;;;;;;;13.93;7.10;;;;;;;13.11;81.61;99497.09;2209132;79;20901;-78
2022/06/18 00:32:03;;;;;;;11.30;7.25;;;;;;;13.05;81.69;99504.45;2209021;79;21393;-78
2022/06/18 00:35:04;;;;;;;12.70;7.60;;;;;;;12.98;81.77;99504.77;2208884;79;20907;-78
2022/06/18 00:38:04;;;;;;;9.18;7.90;;;;;;;12.90;81.62;99498.98;2208900;79;20969;-78
2022/06/18 00:41:05;;;;;;;13.38;7.62;;;;;;;12.83;81.68;99503.27;2208880;79;20905;-78
2022/06/18 00:44:05;;;;;;;12.93;7.50;;;;;;;12.76;81.48;99505.36;2207215;79;21051;-78
2022/06/18 00:47:06;;;;;;;17.80;7.80;;;;;;;12.67;81.66;99502.19;2207066;79;21035;-78
2022/06/18 00:50:06;;;;;;;13.78;6.87;;;;;;;12.63;81.87;99504.73;2207192;81;21028;-78
2022/06/18 00:53:06;;;;;;;15.23;7.12;;;;;;;12.61;81.82;99508.64;2207037;79;21324;-78
2022/06/18 00:56:06;;;;;;;10.88;6.75;;;;;;;12.55;81.58;99503.32;2207263;79;20941;-79
2022/06/18 00:59:07;;;;;;;12.95;7.30;;;;;;;12.44;81.61;99499.67;2207491;79;20976;-78
2022/06/18 01:02:07;;;;;;;19.90;7.85;;;;;;;12.39;81.90;99504.84;2207227;79;21380;-78
2022/06/18 01:05:08;;;;;;;15.30;7.10;;;;;;;12.34;81.82;99496.45;2207059;79;20960;-78
2022/06/18 01:08:08;;;;;;;9.63;6.47;;;;;;;12.25;81.81;99493.70;2207429;79;20983;-80
2022/06/18 01:11:09;;;;;;;30.55;8.00;;;;;;;12.18;81.84;99490.54;2207507;79;20913;-78
2022/06/18 01:14:09;;;;;;;8.33;6.08;;;;;;;12.12;82.33;99493.48;2207169;79;21020;-78
2022/06/18 01:17:09;;;;;;;9.10;6.58;;;;;;;12.06;82.18;99493.38;2208892;79;20937;-78
2022/06/18 01:20:12;;;;;;;9.15;6.87;;;;;;;12.00;82.08;99493.70;2209095;79;20964;-78
2022/06/18 01:23:13;;;;;;;8.68;6.70;;;;;;;11.95;82.27;99489.70;2209065;79;20988;-78
2022/06/18 01:26:13;;;;;;;16.95;6.92;;;;;;;11.89;82.31;99489.61;2209056;79;20976;-78
2022/06/18 01:29:14;;;;;;;11.22;5.75;;;;;;;11.85;82.61;99487.80;2209226;79;20944;-78
2022/06/18 01:32:14;;;;;;;8.98;6.17;;;;;;;11.79;82.48;99487.69;2209072;79;20910;-78
2022/06/18 01:35:15;;;;;;;9.73;6.53;;;;;;;11.71;82.59;99478.38;2209161;79;20912;-79
2022/06/18 01:38:15;;;;;;;59.38;9.90;;;;;;;11.65;82.79;99477.38;2209454;79;20885;-78
2022/06/18 01:44:34;;;;;;;9.13;5.90;;;;;;;11.58;82.97;99473.78;2208854;81;21035;-79
2022/06/18 01:47:35;;;;;;;7.42;6.03;;;;;;;11.53;83.06;99471.94;2208637;81;21388;-79
2022/06/18 01:50:35;;;;;;;7.58;5.90;;;;;;;11.49;82.99;99466.66;2209026;79;20953;-78
2022/06/18 01:53:36;;;;;;;6.13;5.30;;;;;;;11.45;82.90;99464.84;2209250;79;20909;-78
2022/06/18 01:56:36;;;;;;;10.90;5.30;;;;;;;11.40;82.95;99465.18;2209371;79;20913;-78
2022/06/18 01:59:36;;;;;;;6.43;5.10;;;;;;;11.37;82.85;99456.41;2208983;79;20936;-79
2022/06/18 02:02:37;;;;;;;7.73;4.87;;;;;;;11.27;82.66;99459.27;2209188;79;20929;-79
2022/06/18 02:05:40;;;;;;;6.77;4.90;;;;;;;11.23;82.83;99457.42;2209181;81;20980;-79
2022/06/18 02:08:38;;;;;;;7.20;5.27;;;;;;;11.20;82.91;99458.67;2209118;79;20917;-78
2022/06/18 02:11:38;;;;;;;7.70;5.17;;;;;;;11.15;82.80;99459.89;2207841;79;20958;-79
2022/06/18 02:14:38;;;;;;;10.97;5.17;;;;;;;11.14;82.86;99457.25;2207116;79;21125;-78
2022/06/18 02:17:39;;;;;;;7.07;5.17;;;;;;;11.10;83.07;99458.92;2206526;79;21015;-79
2022/06/18 02:20:39;;;;;;;8.07;5.43;;;;;;;11.08;83.46;99458.01;2206933;79;20980;-78
2022/06/18 02:23:40;;;;;;;8.50;5.10;;;;;;;11.09;83.59;99453.66;2207297;79;21000;-78
2022/06/18 02:26:41;;;;;;;6.30;5.60;;;;;;;11.13;83.80;99456.79;2208197;81;20965;-79
2022/06/18 02:29:40;;;;;;;6.03;5.20;;;;;;;11.13;83.65;99451.56;2209222;79;20893;-79
2022/06/18 02:32:41;;;;;;;16.50;6.93;;;;;;;11.13;83.73;99447.22;2209307;79;20897;-81
2022/06/18 02:35:41;;;;;;;8.30;5.60;;;;;;;11.48;94.35;99447.91;2209051;79;20925;-78
2022/06/18 02:38:42;;;;;;;6.90;4.90;;;;;;;12.28;84.96;99446.20;2208983;79;20954;-78
2022/06/18 02:41:42;;;;;;;14.53;5.80;;;;;;;12.09;82.61;99452.87;2209359;79;20928;-78
2022/06/18 02:44:42;;;;;;;10.27;4.83;;;;;;;11.91;82.07;99456.50;2208880;79;21028;-78
2022/06/18 02:47:43;;;;;;;25.57;6.47;;;;;;;11.74;81.61;99457.50;2208979;79;20961;-76
2022/06/18 02:50:43;;;;;;;13.27;5.53;;;;;;;11.59;81.24;99456.36;2208947;79;20878;-76
2022/06/18 02:53:44;;;;;;;6.23;4.90;;;;;;;11.50;81.51;99451.84;2209125;79;20897;-76
2022/06/18 02:56:44;;;;;;;7.20;4.67;;;;;;;11.43;81.38;99457.83;2208830;79;21324;-76
2022/06/18 02:59:44;;;;;;;7.50;4.87;;;;;;;11.41;81.54;99461.72;2208633;79;20956;-76
2022/06/18 03:02:45;;;;;;;7.95;5.42;;;;;;;11.34;81.58;99465.06;2208474;79;20968;-76
2022/06/18 03:05:45;;;;;;;7.60;5.08;;;;;;;11.31;81.62;99457.59;2208972;79;20929;-76
2022/06/18 03:08:46;;;;;;;12.83;5.07;;;;;;;11.27;81.72;99457.97;2208957;79;21288;-77
2022/06/18 03:15:05;;;;;;;5.77;4.53;;;;;;;11.25;82.18;99460.94;2208816;81;21356;-77
2022/06/18 03:18:06;;;;;;;6.73;5.50;;;;;;;11.24;82.34;99459.18;2208865;79;20925;-78
2022/06/18 03:21:06;;;;;;;6.80;4.50;;;;;;;11.27;82.34;99460.58;2208741;79;20949;-79
2022/06/18 03:24:06;;;;;;;4.97;4.43;;;;;;;11.28;82.33;99458.42;2208554;79;21395;-78
2022/06/18 03:27:07;;;;;;;13.27;5.07;;;;;;;11.32;82.28;99456.75;2208945;79;21012;-83
2022/06/18 03:30:11;;;;;;;9.00;5.63;;;;;;;11.35;84.66;99458.98;2210428;79;20975;-83
2022/06/18 03:33:10;;;;;;;14.17;4.97;;;;;;;13.07;92.18;99456.87;2209477;79;20925;-78
2022/06/18 03:36:10;;;;;;;10.20;4.37;;;;;;;13.97;81.77;99453.44;2209310;79;20932;-78
2022/06/18 03:39:11;;;;;;;6.50;4.33;;;;;;;13.55;78.82;99453.03;2208476;79;20953;-78
2022/06/18 03:42:11;;;;;;;5.47;4.55;;;;;;;13.15;78.20;99456.95;2207199;79;21007;-78
2022/06/18 03:45:11;;;;;;;12.18;5.08;;;;;;;12.86;78.54;99460.51;2207771;79;21027;-78
2022/06/18 03:48:15;;;;;;;5.85;4.60;;;;;;;13.42;84.82;99459.91;2207394;79;20948;-78
2022/06/18 03:51:15;;;;;;;5.85;4.55;;;;;;;13.65;78.58;99458.81;2208834;79;21365;-77
2022/06/18 03:54:16;;;;;;;7.55;4.75;;;;;;;13.38;77.97;99460.30;2208576;79;20930;-77
2022/06/18 03:57:16;;;;;;;9.83;4.50;;;;;;;13.15;77.94;99453.90;2208831;79;20987;-77
2022/06/18 04:00:17;;;;;;;4.97;4.47;;;;;;;12.99;78.42;99448.88;2208482;79;21600;-77
2022/06/18 04:03:20;;;;;;;6.30;4.37;;;;;;;13.02;78.83;99452.00;2208592;79;21000;-77
2022/06/18 04:06:20;;;;;;;9.05;4.75;;;;;;;13.10;78.94;99446.42;2208524;81;20979;-77
2022/06/18 04:09:21;;;;;;;9.48;4.10;;;;;;;13.20;79.08;99453.55;2208954;79;20972;-78
2022/06/18 04:12:21;;;;;;;9.00;4.45;;;;;;;13.38;79.39;99451.56;2208804;79;21328;-77
2022/06/18 04:15:21;;;;;;;51.45;9.63;;;;;;;13.61;79.57;99447.84;2209033;79;20949;-80
2022/06/18 04:18:22;;;;;;;132.45;13.80;;;;;;;14.83;83.81;99439.14;2208672;79;20901;-78
2022/06/18 04:21:22;;;;;;;85.28;10.58;;;;;;;16.18;80.79;99440.27;2208565;79;21347;-78
2022/06/18 04:24:23;;;;;;;25.40;5.90;;;;;;;17.08;77.68;99434.78;2208291;79;20961;-79
2022/06/18 04:27:23;;;;;;;72.82;10.72;;;;;;;17.83;75.21;99436.55;2208666;79;20968;-79
2022/06/18 04:30:23;;;;;;;34.10;7.47;;;;;;;18.45;73.14;99432.04;2208045;79;20999;-79
2022/06/18 04:33:24;;;;;;;29.82;6.55;;;;;;;18.90;71.10;99436.41;2208880;79;21348;-79
2022/06/18 04:36:24;;;;;;;177.82;19.60;;;;;;;19.30;69.23;99435.46;2208482;79;21012;-78
2022/06/18 04:39:26;;;;;;;34.63;7.72;;;;;;;19.65;67.97;99435.42;2206683;81;21011;-78
2022/06/18 04:42:25;;;;;;;38.83;7.20;;;;;;;20.08;67.09;99440.05;2206852;79;21615;-79
2022/06/18 04:45:26;;;;;;;20.77;6.35;;;;;;;20.50;65.67;99431.81;2207280;79;21059;-80
2022/06/18 04:48:26;;;;;;;15.05;5.37;;;;;;;20.64;65.36;99437.27;2207496;79;20956;-79
2022/06/18 04:51:26;;;;;;;16.60;5.87;;;;;;;20.75;65.05;99435.73;2207602;79;20977;-80
2022/06/18 04:54:27;;;;;;;72.92;9.88;;;;;;;20.78;64.48;99438.33;2208513;81;20983;-80
2022/06/18 04:57:27;;;;;;;31.75;6.42;;;;;;;20.95;64.11;99432.71;2209244;79;20995;-80
2022/06/18 05:00:27;;;;;;;20.82;5.58;;;;;;;21.20;62.86;99444.55;2208048;79;20921;-80
2022/06/18 05:03:28;;;;;;;13.20;4.92;;;;;;;21.25;61.55;99442.70;2207228;79;20999;-80
2022/06/18 05:06:28;;;;;;;7.65;4.45;;;;;;;21.13;60.44;99444.72;2208565;79;20952;-82
2022/06/18 05:09:29;;;;;;;10.48;5.08;;;;;;;21.32;60.69;99446.09;2209400;79;21002;-81
2022/06/18 05:12:29;;;;;;;23.27;5.92;;;;;;;21.72;59.58;99439.91;2208450;81;21000;-80
2022/06/18 05:15:30;;;;;;;11.50;4.97;;;;;;;21.87;59.51;99436.42;2208775;79;20996;-81
2022/06/18 05:18:30;;;;;;;10.08;4.70;;;;;;;21.79;57.38;99438.39;2208503;79;20960;-81
2022/06/18 05:21:30;;;;;;;13.25;4.92;;;;;;;21.70;57.58;99431.09;2207299;79;21415;-79
2022/06/18 05:24:31;;;;;;;12.63;5.37;;;;;;;21.68;58.29;99429.81;2223615;79;21027;-83
2022/06/18 05:27:31;;;;;;;5.95;4.25;;;;;;;22.05;59.79;99435.13;2235415;79;20990;-79
2022/06/18 05:30:32;;;;;;;11.45;4.42;;;;;;;22.27;54.55;99427.92;2234663;79;21460;-78
2022/06/18 05:33:32;;;;;;;8.95;4.55;;;;;;;21.92;54.98;99430.53;2234592;80;20975;-78
2022/06/18 05:36:32;;;;;;;6.60;4.22;;;;;;;21.83;55.40;99433.42;2233792;79;20971;-78
2022/06/18 05:39:33;;;;;;;6.28;3.98;;;;;;;21.86;55.02;99429.81;2234564;79;21022;-79
2022/06/18 05:42:33;;;;;;;7.83;4.55;;;;;;;21.90;54.50;99431.48;2234494;79;20975;-78
2022/06/18 05:45:33;;;;;;;5.85;4.33;;;;;;;21.92;54.14;99427.88;2233695;79;21441;-78
2022/06/18 05:48:34;;;;;;;7.47;4.17;;;;;;;21.93;54.56;99432.73;2233615;79;20978;-79
2022/06/18 05:51:34;;;;;;;8.75;4.28;;;;;;;22.01;54.55;99433.88;2235953;79;20968;-78
2022/06/18 05:54:35;;;;;;;7.55;3.98;;;;;;;22.23;54.81;99436.44;2236504;79;20959;-78
2022/06/18 05:57:35;;;;;;;14.53;4.92;;;;;;;22.41;53.86;99427.09;2236108;79;21295;-78
2022/06/18 06:00:36;;;;;;;5.72;3.65;;;;;;;22.43;53.91;99429.26;2236113;79;20956;-78
2022/06/18 06:03:36;;;;;;;10.78;4.58;;;;;;;22.55;53.68;99427.63;2236124;79;20994;-79
2022/06/18 06:06:36;;;;;;;6.37;4.15;;;;;;;22.57;53.03;99423.14;2236230;79;21014;-78
2022/06/18 06:12:58;;;;;;;9.85;3.92;;;;;;;22.95;55.04;99419.42;2214753;80;21019;-80
2022/06/18 06:15:58;;;;;;;6.80;4.12;;;;;;;23.35;53.83;99415.10;2235977;79;21401;-81
2022/06/18 06:18:59;;;;;;;8.68;3.80;;;;;;;23.49;52.47;99408.91;2236170;79;20915;-80
2022/06/18 06:21:59;;;;;;;6.35;4.22;;;;;;;23.65;52.54;99411.12;2235859;80;21008;-80
2022/06/18 06:24:59;;;;;;;10.60;4.10;;;;;;;23.78;51.56;99404.01;2219745;79;21325;-78
2022/06/18 06:28:00;;;;;;;5.42;3.70;;;;;;;23.99;52.05;99403.75;2208356;79;21050;-81
2022/06/18 06:31:00;;;;;;;5.37;3.62;;;;;;;24.28;50.35;99412.16;2209293;79;20952;-81
2022/06/18 06:34:01;;;;;;;9.88;4.83;;;;;;;24.50;50.58;99406.06;2208975;79;20920;-81
2022/06/18 06:37:01;;;;;;;8.88;4.22;;;;;;;24.75;49.34;99406.45;2209453;81;20899;-82
2022/06/18 06:40:01;;;;;;;7.33;3.50;;;;;;;24.85;49.60;99408.77;2208870;79;20952;-78
2022/06/18 06:43:02;;;;;;;13.58;4.28;;;;;;;25.02;48.86;99406.37;2210067;79;20933;-85
2022/06/18 06:46:02;;;;;;;6.75;3.70;;;;;;;25.14;49.43;99404.57;2209968;79;21384;-80
2022/06/18 06:49:03;;;;;;;10.03;4.12;;;;;;;25.17;48.03;99400.94;2209095;79;20940;-82
2022/06/18 06:52:03;;;;;;;10.10;4.22;;;;;;;25.11;47.11;99403.35;2209473;79;20968;-83
2022/06/18 06:58:22;;;;;;;9.58;4.65;;;;;;;25.26;48.25;99402.79;2209816;81;21351;-84
2022/06/18 07:01:23;;;;;;;8.75;4.25;;;;;;;25.54;47.07;99404.37;2209843;79;20983;-84
2022/06/18 07:04:23;;;;;;;7.05;3.72;;;;;;;25.67;47.31;99402.97;2209563;79;20964;-82
2022/06/18 07:07:25;;;;;;;6.65;3.52;;;;;;;25.74;47.82;99400.45;2209672;79;21343;-83
2022/06/18 07:10:24;;;;;;;7.78;3.60;;;;;;;25.92;47.07;99398.35;2209344;81;20952;-83
2022/06/18 07:13:24;;;;;;;6.80;3.62;;;;;;;25.97;46.28;99400.36;2210139;80;20944;-82
2022/06/18 07:16:29;;;;;;;3.15;2.95;;;;;;;26.08;44.69;99399.08;2209544;79;20956;-80
2022/06/18 07:19:29;;;;;;;4.33;3.20;;;;;;;26.19;42.76;99399.02;2209285;80;20957;-80
2022/06/18 07:22:33;;;;;;;4.28;3.30;;;;;;;26.30;43.01;99395.41;2209378;79;20945;-80
2022/06/18 07:25:33;;;;;;;4.87;3.47;;;;;;;26.32;42.99;99395.34;2228601;80;21022;-81
2022/06/18 07:28:36;;;;;;;3.77;3.20;;;;;;;26.41;43.54;99392.77;2236368;79;20924;-79
2022/06/18 07:31:36;;;;;;;5.60;3.15;;;;;;;26.44;42.28;99390.83;2235426;80;20983;-80
2022/06/18 07:34:37;;;;;;;8.95;2.98;;;;;;;26.24;40.50;99388.12;2236087;79;20967;-79
2022/06/18 07:37:37;;;;;;;6.83;3.22;;;;;;;26.14;39.93;99386.77;2235468;79;20970;-79
2022/06/18 07:40:37;;;;;;;3.70;2.75;;;;;;;26.19;39.91;99374.94;2236343;80;21358;-81
2022/06/18 07:43:38;;;;;;;12.75;3.60;;;;;;;26.31;40.31;99377.55;2236363;80;20987;-80
2022/06/18 07:46:38;;;;;;;5.33;3.37;;;;;;;26.59;40.08;99369.19;2234598;79;21317;-78
2022/06/18 07:49:39;;;;;;;4.30;2.70;;;;;;;26.75;40.54;99371.57;2234825;79;21362;-79
2022/06/18 07:52:40;;;;;;;4.50;2.80;;;;;;;26.78;39.47;99375.92;2235324;79;20991;-78
2022/06/18 07:55:40;;;;;;;9.25;2.90;;;;;;;26.71;39.44;99362.41;2234976;79;20920;-79
2022/06/18 07:58:40;;;;;;;3.15;2.42;;;;;;;26.82;38.64;99369.48;2234915;79;20979;-80
2022/06/18 08:01:40;;;;;;;4.87;3.00;;;;;;;26.79;37.93;99365.61;2235552;79;21330;-81
2022/06/18 08:04:41;;;;;;;11.00;3.05;;;;;;;26.78;39.02;99369.23;2235632;79;21011;-79
2022/06/18 08:07:41;;;;;;;4.78;3.22;;;;;;;26.95;39.46;99378.72;2234962;80;21017;-79
2022/06/18 08:10:42;;;;;;;2.77;2.47;;;;;;;27.17;39.41;99371.92;2235316;79;20960;-80
2022/06/18 08:13:42;;;;;;;4.20;2.50;;;;;;;27.37;38.24;99374.98;2235286;80;20952;-80
2022/06/18 08:16:44;;;;;;;3.10;2.45;;;;;;;27.43;37.09;99378.23;2235062;80;21427;-80
2022/06/18 08:19:43;;;;;;;4.72;2.60;;;;;;;27.48;37.43;99374.86;2235983;79;21296;-81
2022/06/18 08:22:43;;;;;;;3.12;2.62;;;;;;;27.76;37.56;99371.75;2236017;79;20924;-81
2022/06/18 08:25:46;;;;;;;5.60;3.00;;;;;;;28.03;36.85;99380.70;2217141;79;20972;-79
2022/06/18 08:28:47;;;;;;;;;;;;;;;28.41;35.74;99380.95;2211834;79;20913;-80
2022/06/18 08:31:47;;;;;;;12.80;3.00;;;;;;;28.81;35.46;99366.77;2208912;81;20119;-81
2022/06/18 08:34:48;;;;;;;6.12;2.77;;;;;;;29.33;34.76;99369.28;2209035;79;20994;-80
2022/06/18 08:37:49;;;;;;;4.90;2.30;;;;;;;29.49;34.29;99360.80;2209392;79;20952;-81
2022/06/18 08:40:51;;;;;;;5.17;2.33;;;;;;;29.63;34.43;99352.80;2209245;79;21431;-81
2022/06/18 08:43:51;;;;;;;;;;;;;;;29.79;33.70;99346.91;2212203;79;20964;-80
2022/06/18 08:46:53;;;;;;;4.72;2.60;;;;;;;29.72;33.41;99359.47;2189861;81;28484;-80
2022/06/18 08:49:53;;;;;;;3.92;2.42;;;;;;;29.88;33.11;99356.74;2209567;79;20933;-80
2022/06/18 08:52:53;;;;;;;3.10;2.27;;;;;;;29.66;32.10;99361.17;2210086;79;20952;-81
2022/06/18 08:55:54;;;;;;;4.15;2.50;;;;;;;29.40;32.16;99358.57;2209610;81;21642;-81
2022/06/18 08:58:54;;;;;;;5.25;2.50;;;;;;;29.55;32.29;99359.10;2208028;79;20991;-80
2022/06/18 09:01:55;;;;;;;4.08;2.65;;;;;;;29.63;32.14;99346.55;2209047;79;20901;-81
2022/06/18 09:04:55;;;;;;;4.40;2.33;;;;;;;29.77;32.62;99341.23;2209713;79;20964;-80
2022/06/18 09:07:55;;;;;;;2.80;2.40;;;;;;;29.77;31.99;99342.10;2208679;81;21395;-80
2022/06/18 09:10:56;;;;;;;2.50;2.30;;;;;;;29.64;32.68;99339.73;2208613;79;20964;-80
2022/06/18 09:13:57;;;;;;;4.25;2.35;;;;;;;29.39;31.98;99339.36;2207579;79;20956;-81
2022/06/18 09:16:57;;;;;;;4.60;2.72;;;;;;;29.09;32.19;99341.96;2207448;79;21059;-80
2022/06/18 09:19:57;;;;;;;2.92;2.15;;;;;;;28.79;32.95;99337.78;2207299;79;21956;-81
2022/06/18 09:22:57;;;;;;;5.00;2.30;;;;;;;28.70;33.53;99341.84;2207260;81;20968;-81
2022/06/18 09:25:58;;;;;;;3.42;2.50;;;;;;;28.52;32.83;99338.29;2207706;79;21031;-80
2022/06/18 09:29:01;;;;;;;5.33;2.50;;;;;;;28.36;33.85;99332.48;2208710;81;21355;-79
2022/06/18 09:31:59;;;;;;;2.62;2.40;;;;;;;28.39;33.93;99339.89;2208884;79;21320;-78
2022/06/18 09:34:59;;;;;;;3.35;2.58;;;;;;;28.40;33.33;99336.73;2208631;79;20968;-79
2022/06/18 09:38:00;;;;;;;3.33;2.65;;;;;;;28.47;34.26;99336.33;2207871;79;20961;-79
2022/06/18 09:41:00;;;;;;;15.30;3.20;;;;;;;28.62;33.69;99335.14;2208877;79;20976;-79
2022/06/18 09:44:06;;;;;;;3.42;2.42;;;;;;;28.89;33.83;99318.02;2209511;79;20925;-78
2022/06/18 09:47:03;;;;;;;5.40;2.90;;;;;;;28.93;34.17;99319.11;2208927;81;21031;-79
2022/06/18 09:50:03;;;;;;;4.30;3.08;;;;;;;28.89;33.86;99316.20;2209209;81;21937;-79
2022/06/18 09:53:04;;;;;;;10.78;3.10;;;;;;;28.96;33.85;99313.56;2208841;79;20964;-78
2022/06/18 09:56:04;;;;;;;4.92;2.95;;;;;;;29.01;34.24;99315.52;2207812;79;20948;-79
2022/06/18 09:59:09;;;;;;;4.35;2.60;;;;;;;28.93;33.12;99318.24;2206594;79;20944;-78
2022/06/18 10:02:07;;;;;;;3.98;3.08;;;;;;;28.84;33.05;99322.30;2194800;80;21014;-79
2022/06/18 10:08:26;;;;;;;4.12;2.50;;;;;;;28.57;34.02;99319.72;2206975;81;21035;-78
2022/06/18 10:11:27;;;;;;;5.25;2.75;;;;;;;28.50;34.05;99326.77;2207338;79;20968;-78
2022/06/18 10:14:27;;;;;;;4.75;3.20;;;;;;;28.37;34.06;99320.79;2208046;79;20933;-79
2022/06/18 10:17:28;;;;;;;5.75;2.87;;;;;;;28.11;34.15;99316.77;2206511;81;21119;-78
2022/06/18 10:20:28;;;;;;;4.08;2.65;;;;;;;28.02;35.24;99322.14;2205585;79;20980;-78
2022/06/18 10:23:29;;;;;;;4.47;2.60;;;;;;;28.46;34.86;99317.14;2206227;79;20960;-79
2022/06/18 10:26:29;;;;;;;7.40;2.70;;;;;;;28.90;33.87;99309.00;2227303;79;21027;-79
2022/06/18 10:29:29;;;;;;;29.65;4.35;;;;;;;29.24;33.31;99311.52;2233263;79;21066;-79
2022/06/18 10:32:30;;;;;;;6.70;3.22;;;;;;;29.36;32.13;99313.98;2233423;79;21006;-79
2022/06/18 10:35:30;;;;;;;3.08;2.70;;;;;;;29.38;31.94;99295.94;2234067;79;20943;-80
2022/06/18 10:38:30;;;;;;;4.62;3.12;;;;;;;29.44;32.44;99292.93;2234966;79;21486;-78
2022/06/18 10:41:32;;;;;;;4.45;2.92;;;;;;;29.32;32.87;99285.55;2235025;80;20999;-79
2022/06/18 10:44:31;;;;;;;3.35;2.77;;;;;;;29.02;33.23;99282.79;2236576;79;20924;-78
2022/06/18 10:47:32;;;;;;;5.35;3.02;;;;;;;28.75;33.90;99285.17;2236029;79;20963;-78
2022/06/18 10:50:32;;;;;;;3.98;3.17;;;;;;;28.78;34.21;99276.94;2236642;79;20984;-79
2022/06/18 10:53:32;;;;;;;3.30;2.67;;;;;;;28.96;33.10;99269.22;2236585;79;20920;-79
2022/06/18 10:56:33;;;;;;;7.42;2.90;;;;;;;28.97;33.79;99277.67;2237083;79;20920;-79
2022/06/18 10:59:33;;;;;;;6.00;3.22;;;;;;;28.92;33.84;99265.45;2237022;79;20972;-81
2022/06/18 11:02:36;;;;;;;9.05;2.75;;;;;;;28.81;33.32;99266.02;2215060;80;20968;-81
2022/06/18 11:05:36;;;;;;;5.47;2.58;;;;;;;28.74;32.64;99252.06;2237348;79;20955;-80
2022/06/18 11:08:36;;;;;;;4.45;3.42;;;;;;;28.88;32.75;99263.42;2237365;79;20901;-81
2022/06/18 11:11:38;;;;;;;8.93;2.62;;;;;;;28.99;32.45;99254.27;2237021;80;20944;-76
2022/06/18 11:14:37;;;;;;;2.75;2.30;;;;;;;29.10;32.41;99255.00;2237139;79;20916;-78
2022/06/18 11:17:41;;;;;;;4.03;2.20;;;;;;;29.10;32.23;99259.90;2237026;79;21003;-79
2022/06/18 11:20:38;;;;;;;2.40;2.20;;;;;;;29.37;32.49;99252.53;2236862;79;20936;-79
2022/06/18 11:23:38;;;;;;;7.00;2.40;;;;;;;29.42;32.16;99250.44;2236893;79;20971;-79
2022/06/18 11:26:39;;;;;;;132.67;11.53;;;;;;;29.39;32.35;99251.97;2236680;79;21071;-79
2022/06/18 11:29:42;;;;;;;3.83;2.22;;;;;;;29.54;31.08;99247.57;2237288;79;20951;-80
2022/06/18 11:32:42;;;;;;;5.08;2.70;;;;;;;29.64;31.24;99232.14;2237271;80;20928;-80
2022/06/18 11:35:43;;;;;;;3.75;3.12;;;;;;;29.55;31.69;99233.17;2237049;79;20928;-80
2022/06/18 11:38:43;;;;;;;7.28;5.25;;;;;;;29.29;32.24;99226.09;2237010;79;20924;-80
2022/06/18 11:41:44;;;;;;;4.25;2.12;;;;;;;29.34;31.71;99225.83;2236386;79;21002;-80
2022/06/18 11:44:44;;;;;;;5.12;3.70;;;;;;;29.27;30.14;99225.80;2236707;80;20935;-81
2022/06/18 11:47:49;;;;;;;2.12;1.82;;;;;;;29.08;30.24;99217.46;2235476;79;21398;-79
2022/06/18 11:50:45;;;;;;;2.60;2.40;;;;;;;29.11;30.51;99217.28;2235301;79;20955;-78
2022/06/18 11:53:45;;;;;;;2.33;2.05;;;;;;;29.24;30.66;99218.78;2236561;79;20983;-79
2022/06/18 11:56:46;;;;;;;2.70;2.00;;;;;;;29.41;29.70;99213.27;2236443;80;20951;-78
2022/06/18 11:59:52;;;;;;;19.80;3.62;;;;;;;29.42;29.77;99212.80;2236484;79;20896;-79
2022/06/18 12:02:47;;;;;;;2.60;2.30;;;;;;;29.46;29.73;99203.63;2236380;79;21311;-80
2022/06/18 12:05:47;;;;;;;10.20;7.15;;;;;;;29.32;29.76;99202.20;2235169;79;20979;-80
2022/06/18 12:08:47;;;;;;;19.80;12.25;;;;;;;28.94;30.50;99190.52;2235489;79;20951;-85
2022/06/18 12:11:48;;;;;;;6.55;4.28;;;;;;;28.86;31.01;99187.41;2235585;79;20951;-84
2022/06/18 12:14:48;;;;;;;6.85;2.77;;;;;;;28.93;29.35;99182.06;2235213;79;21377;-82
2022/06/18 12:17:49;;;;;;;2.20;2.00;;;;;;;28.92;29.27;99168.72;2234248;80;20999;-79
2022/06/18 12:20:49;;;;;;;5.70;2.15;;;;;;;29.05;29.62;99177.80;2236373;79;20958;-80
2022/06/18 12:23:50;;;;;;;2.42;2.22;;;;;;;29.28;29.58;99173.76;2236329;79;20986;-79
2022/06/18 12:26:50;;;;;;;3.70;2.30;;;;;;;29.44;29.35;99170.09;2236082;79;21386;-79
2022/06/18 12:29:50;;;;;;;28.20;4.37;;;;;;;29.51;29.81;99167.07;2236552;79;20959;-78
2022/06/18 12:32:51;;;;;;;7.37;2.17;;;;;;;29.66;29.71;99164.31;2236702;79;20968;-79
2022/06/18 12:35:52;;;;;;;2.98;2.15;;;;;;;29.99;28.99;99163.19;2236237;79;21310;-79
2022/06/18 12:38:51;;;;;;;2.75;2.25;;;;;;;30.08;29.37;99154.09;2236309;79;20916;-78
2022/06/18 12:41:52;;;;;;;3.12;2.30;;;;;;;30.00;29.24;99146.94;2236340;79;20920;-79
2022/06/18 12:44:52;;;;;;;3.00;2.10;;;;;;;29.85;29.35;99140.31;2236339;79;21025;-78
2022/06/18 12:47:53;;;;;;;3.62;1.80;;;;;;;29.79;29.03;99134.34;2236303;79;20971;-79
2022/06/18 12:50:53;;;;;;;7.10;2.40;;;;;;;29.86;29.88;99137.52;2236451;79;21311;-80
2022/06/18 12:53:54;;;;;;;2.80;2.30;;;;;;;29.75;30.18;99122.53;2236481;79;20947;-79
2022/06/18 12:56:54;;;;;;;18.32;3.75;;;;;;;29.97;29.88;99119.36;2236463;79;20951;-79
2022/06/18 12:59:54;;;;;;;3.30;2.20;;;;;;;29.98;29.29;99125.13;2236349;79;20972;-79
2022/06/18 13:02:55;;;;;;;3.90;2.30;;;;;;;29.95;29.49;99121.28;2236324;80;20955;-78
2022/06/18 13:05:55;;;;;;;7.45;2.40;;;;;;;30.03;28.67;99118.52;2236491;79;20944;-78
2022/06/18 13:08:56;;;;;;;2.50;2.30;;;;;;;30.03;28.44;99114.97;2236532;79;20956;-79
2022/06/18 13:11:56;;;;;;;3.05;2.45;;;;;;;30.01;28.94;99114.16;2236489;79;20924;-80
2022/06/18 13:14:56;;;;;;;2.40;2.20;;;;;;;30.06;28.78;99108.04;2236609;79;20959;-79
2022/06/18 13:17:57;;;;;;;3.80;1.90;;;;;;;30.26;27.99;99110.31;2236437;79;20983;-80
2022/06/18 13:20:57;;;;;;;4.25;2.05;;;;;;;30.37;28.79;99102.44;2236843;79;20928;-79
2022/06/18 13:30:36;;;;;;;2.60;2.40;;;;;;;30.58;28.68;99102.00;2236478;80;21319;-80
2022/06/18 13:33:39;;;;;;;5.28;2.22;;;;;;;30.61;28.59;99098.66;2236511;79;20908;-81
2022/06/18 13:36:36;;;;;;;2.50;2.02;;;;;;;30.39;29.31;99092.44;2236654;79;20888;-80
2022/06/18 13:39:37;;;;;;;2.83;1.90;;;;;;;30.21;29.51;99093.59;2236052;79;20955;-80
2022/06/18 13:42:37;;;;;;;6.87;2.08;;;;;;;30.07;30.02;99082.38;2236522;79;20940;-80
2022/06/18 13:45:38;;;;;;;4.62;2.20;;;;;;;30.08;29.78;99090.83;2236313;79;20915;-80
2022/06/18 13:48:39;;;;;;;3.77;2.27;;;;;;;30.13;30.21;99085.15;2236155;79;20963;-80
2022/06/18 13:51:38;;;;;;;4.22;2.27;;;;;;;30.33;30.04;99074.44;2236548;79;20945;-80
2022/06/18 13:54:39;;;;;;;4.45;2.37;;;;;;;30.42;29.88;99067.12;2235061;79;21314;-80
2022/06/18 13:57:40;;;;;;;8.13;2.77;;;;;;;30.48;29.34;99070.77;2234853;79;20974;-80
2022/06/18 14:00:40;;;;;;;3.60;2.35;;;;;;;30.35;29.28;99067.16;2235104;79;21217;-79
2022/06/18 14:03:40;;;;;;;3.67;2.47;;;;;;;30.40;29.54;99066.37;2235219;79;21071;-82
2022/06/18 14:06:40;;;;;;;3.80;2.58;;;;;;;30.40;29.54;99066.37;2235229;79;21012;-81
2022/06/18 14:09:41;;;;;;;4.17;2.70;;;;;;;30.32;29.30;99056.55;2236776;78;20924;-81
2022/06/18 14:12:41;;;;;;;79.62;7.97;;;;;;;30.37;29.76;99064.73;2236837;79;20924;-80
2022/06/18 14:15:42;;;;;;;4.10;2.40;;;;;;;30.33;29.50;99053.75;2236486;79;20907;-80
2022/06/18 14:18:42;;;;;;;3.15;2.10;;;;;;;30.33;29.47;99049.72;2236603;79;20956;-81
2022/06/18 14:21:42;;;;;;;3.58;2.40;;;;;;;30.20;29.27;99042.06;2236834;79;20885;-80
2022/06/18 14:24:43;;;;;;;5.05;2.20;;;;;;;30.21;30.08;99043.79;2236784;79;20920;-80
2022/06/18 14:27:43;;;;;;;7.17;2.60;;;;;;;30.29;29.60;99038.77;2236046;79;21363;-81
2022/06/18 14:30:44;;;;;;;5.50;2.33;;;;;;;30.35;29.54;99035.70;2236452;79;20900;-80